Terminal Aerodrome Forecast
Issued by NWS

Home | Current Version | Previous Version | Text Only | Print | Product List | Glossary On
Versions: 1 2 3 4 5 6 7 8 9 10 11
000
FTUS45 KFGZ 182326
TAFPRC
TAF
KPRC 182326Z 1900/1924 20018G28KT P6SM SCT030 BKN050
     FM190600 22022G32KT P6SM -SHRA BKN025
     FM191500 20025G35KT 4SM -SHSNRA BKN020 OVC030=

USA.gov is the U.S. government's official web portal to all federal, state and local government web resources and services.